Relief — WDC8380 — position and weather

sailwx.info

Track history (hours):
 
Tides and Currents Weather Stations Pressure Air Temp Water Temp Dewpoint Dewpoint Depression Visibility Wind Speed Wind Dir Waves Ship Positions

Relief

Owner: VIRGINIA PILOT BOAT CORPORATION, VIRGINIA BEACH, VA. More information available from US FCC via Universal Licensing System and Coast Guard Vessel Documentation Center.

Last reported at 2017-Nov-18 02:36 UTC. Time now 2017-Nov-18 03:06 UTC.
Position N 46°01' W 122°51'.

Length 13 m; draft 1 m.

Type: Pilot. MMSI: 367086140.

Date/timePositionNaut miles runAvg speedWind from/ knotsBaromVisibWave heightAir tempDewpointWater temp
2017-Nov-18 02:36N 46°01' W 122°51'0 0.1
2017-Nov-18 02:30N 46°01' W 122°51'0 0.0
2017-Nov-18 01:48N 46°01' W 122°51'0 0.0
2017-Nov-17 23:51N 46°01' W 122°51'0 0.0
2017-Nov-17 23:21N 46°01' W 122°51'0 0.0
2017-Nov-17 22:06N 46°01' W 122°51'0 0.0
2017-Nov-17 21:57N 46°01' W 122°51'0 0.0
2017-Nov-17 21:27N 46°01' W 122°51'0 0.0
2017-Nov-17 21:00N 46°01' W 122°51'0 0.0
2017-Nov-17 20:27N 46°01' W 122°51'0 0.1
2017-Nov-17 19:45N 46°01' W 122°51'0 0.1
2017-Nov-17 19:27N 46°01' W 122°51'0 0.0
2017-Nov-17 18:45N 46°01' W 122°51'0 0.0
2017-Nov-17 18:23N 46°01' W 122°51'2 4.4
2017-Nov-17 18:00N 45°59' W 122°50'2 3.3
2017-Nov-17 17:29N 46°01' W 122°51'0 0.0
2017-Nov-17 16:56N 46°01' W 122°51'0 0.0
2017-Nov-17 16:11N 46°01' W 122°51'0 0.1
2017-Nov-17 15:53N 46°01' W 122°51'0 0.0
2017-Nov-17 15:29N 46°01' W 122°51'0 0.0
2017-Nov-17 14:44N 46°01' W 122°51'0 0.0
2017-Nov-17 14:08N 46°01' W 122°51'0 0.0
2017-Nov-17 13:56N 46°01' W 122°51'0 0.0
2017-Nov-17 12:53N 46°01' W 122°51'0 0.0
2017-Nov-17 12:26N 46°01' W 122°51'0 0.0
2017-Nov-17 11:56N 46°01' W 122°51'0 0.0
2017-Nov-17 10:11N 46°01' W 122°51'0 0.0
2017-Nov-17 09:56N 46°01' W 122°51'1 2.7
2017-Nov-17 09:30N 45°59' W 122°51'1725.7
2017-Nov-17 08:52N 45°43' W 122°46'3 7.9
2017-Nov-17 08:30N 45°40' W 122°46'2 3.8
2017-Nov-17 07:59N 45°39' W 122°45'920.0
2017-Nov-17 07:31N 45°48' W 122°47'1325.8
2017-Nov-17 07:00N 46°01' W 122°51'0 0.1
2017-Nov-17 06:30N 46°01' W 122°51'0 0.0
2017-Nov-17 05:57N 46°01' W 122°51'0 0.0
2017-Nov-17 05:30N 46°01' W 122°51'0 0.0
2017-Nov-17 04:54N 46°01' W 122°51'0 0.0
2017-Nov-17 04:06N 46°01' W 122°51'0 0.0
2017-Nov-17 03:06N 46°01' W 122°51'0 0.0
2017-Nov-17 02:48N 46°01' W 122°51'0 0.0
2017-Nov-17 02:30N 46°01' W 122°51'0 0.0
2017-Nov-17 02:00N 46°01' W 122°51'0 0.0
2017-Nov-17 01:30N 46°01' W 122°51'0 0.0
2017-Nov-17 00:51N 46°01' W 122°51'0 0.0
2017-Nov-17 00:26N 46°01' W 122°51'0 0.0
2017-Nov-16 23:45N 46°01' W 122°51'0 0.0
2017-Nov-16 23:27N 46°01' W 122°51'0 0.0
2017-Nov-16 22:27N 46°01' W 122°51'0 0.0
2017-Nov-16 21:42N 46°01' W 122°51'0 0.0
2017-Nov-16 21:27N 46°01' W 122°51'0 0.0
2017-Nov-16 20:59N 46°01' W 122°51'0 0.0
2017-Nov-16 20:20N 46°01' W 122°51'0 0.0
2017-Nov-16 19:50N 46°01' W 122°51'0 0.0
2017-Nov-16 18:48N 46°01' W 122°51'0 0.0
2017-Nov-16 18:30N 46°01' W 122°51'0 0.0
2017-Nov-16 17:57N 46°01' W 122°51'0 0.0
2017-Nov-16 17:27N 46°01' W 122°51'0 0.0
2017-Nov-16 16:57N 46°01' W 122°51'0 0.0
2017-Nov-16 16:15N 46°01' W 122°51'0 0.0
2017-Nov-16 15:51N 46°01' W 122°51'0 0.0
2017-Nov-16 15:30N 46°01' W 122°51'0 0.0
2017-Nov-16 14:57N 46°01' W 122°51'0 0.0
2017-Nov-16 14:27N 46°01' W 122°51'0 0.0
2017-Nov-16 14:00N 46°01' W 122°51'0 0.0
2017-Nov-16 13:21N 46°01' W 122°51'0 0.0
2017-Nov-16 12:45N 46°01' W 122°51'0 0.0
2017-Nov-16 12:21N 46°01' W 122°51'0 0.0
2017-Nov-16 11:59N 46°01' W 122°51'0 0.0
2017-Nov-16 10:50N 46°01' W 122°51'0 0.0
2017-Nov-16 10:11N 46°01' W 122°51'0 0.0
2017-Nov-16 09:54N 46°01' W 122°51'0 0.0
2017-Nov-16 08:48N 46°01' W 122°51'0 0.0
2017-Nov-16 07:42N 46°01' W 122°51'0 0.0
2017-Nov-16 07:03N 46°01' W 122°51'0 0.1
2017-Nov-16 07:00N 46°01' W 122°51'0 0.0
2017-Nov-16 06:30N 46°01' W 122°51'0 0.0
2017-Nov-16 06:00N 46°01' W 122°51'0 0.0
2017-Nov-16 05:24N 46°01' W 122°51'0 0.0
2017-Nov-16 04:57N 46°01' W 122°51'0 0.0
2017-Nov-16 04:30N 46°01' W 122°51'0 0.0
2017-Nov-16 02:51N 46°01' W 122°51'0 0.0
2017-Nov-16 02:30N 46°01' W 122°51'0 0.0
2017-Nov-16 01:57N 46°01' W 122°51'0 0.0
2017-Nov-16 01:30N 46°01' W 122°51'0 0.0
2017-Nov-16 01:00N 46°01' W 122°51'0 0.0
2017-Nov-16 00:24N 46°01' W 122°51'0 0.0
2017-Nov-15 23:57N 46°01' W 122°51'0 0.0
2017-Nov-15 23:27N 46°01' W 122°51'0 0.0
2017-Nov-15 22:27N 46°01' W 122°51'0 0.0
2017-Nov-15 21:58N 46°01' W 122°51'0 0.0
2017-Nov-15 21:27N 46°01' W 122°51'0 0.0
2017-Nov-15 21:00N 46°01' W 122°51'0 0.1
2017-Nov-15 20:30N 46°01' W 122°51'0 0.1
2017-Nov-15 20:00N 46°01' W 122°51'0 0.0
2017-Nov-15 19:20N 46°01' W 122°51'0 0.0
2017-Nov-15 18:53N 46°01' W 122°51'0 0.0
2017-Nov-15 18:30N 46°01' W 122°51'0 0.0
2017-Nov-15 18:00N 46°01' W 122°51'0 0.1
2017-Nov-15 17:30N 46°01' W 122°51'918.7
2017-Nov-15 17:00N 46°08' W 122°60'815.2
2017-Nov-15 16:31N 46°11' W 123°09'1121.6
2017-Nov-15 16:00N 46°05' W 122°56'0 0.0
2017-Nov-15 15:31N 46°05' W 122°56'0 0.1
2017-Nov-15 14:02N 46°05' W 122°56'0 0.3
2017-Nov-15 14:00N 46°05' W 122°56'917.4
2017-Nov-15 13:30N 46°10' W 123°06'714.5
2017-Nov-15 13:00N 46°06' W 122°58'714.6
2017-Nov-15 12:30N 46°01' W 122°51'0 0.0
2017-Nov-15 12:00N 46°01' W 122°51'0 0.0
2017-Nov-15 11:30N 46°01' W 122°51'0 0.0
2017-Nov-15 11:00N 46°01' W 122°51'0 0.0
2017-Nov-15 10:21N 46°01' W 122°51'0 0.0
2017-Nov-15 10:00N 46°01' W 122°51'0 0.0
2017-Nov-15 09:30N 46°01' W 122°51'0 0.0
2017-Nov-15 09:00N 46°01' W 122°51'0 0.0
2017-Nov-15 08:30N 46°01' W 122°51'0 0.0
2017-Nov-15 07:58N 46°01' W 122°51'0 0.0
2017-Nov-15 07:24N 46°01' W 122°51'0 0.0
2017-Nov-15 06:53N 46°01' W 122°51'0 0.0
2017-Nov-15 06:30N 46°01' W 122°51'0 0.0
2017-Nov-15 06:00N 46°01' W 122°51'0 0.0
2017-Nov-15 05:30N 46°01' W 122°51'0 0.0
2017-Nov-15 05:01N 46°01' W 122°51'2 3.4
2017-Nov-15 04:31N 45°59' W 122°50'0 0.0
2017-Nov-15 04:01N 45°59' W 122°50'2 3.4
2017-Nov-15 03:30N 46°01' W 122°51'0 0.0
2017-Nov-15 03:00N 46°01' W 122°51'0 0.0
2017-Nov-15 02:16N 46°01' W 122°51'0 0.0
2017-Nov-15 02:00N 46°01' W 122°51'0 0.0
2017-Nov-15 01:30N 46°01' W 122°51'0 0.0
2017-Nov-15 01:00N 46°01' W 122°51'0 0.0
2017-Nov-15 00:30N 46°01' W 122°51'0 0.0
2017-Nov-15 00:00N 46°01' W 122°51'0 0.0
2017-Nov-14 23:30N 46°01' W 122°51'0 0.0
2017-Nov-14 23:00N 46°01' W 122°51'0 0.0
2017-Nov-14 22:28N 46°01' W 122°51'0 0.0
2017-Nov-14 22:00N 46°01' W 122°51'0 0.0
2017-Nov-14 21:30N 46°01' W 122°51'0 0.0
2017-Nov-14 21:00N 46°01' W 122°51'0 0.0
2017-Nov-14 20:30N 46°01' W 122°51'0 0.0
2017-Nov-14 20:00N 46°01' W 122°51'0 0.0
2017-Nov-14 19:29N 46°01' W 122°51'0 0.0
2017-Nov-14 18:59N 46°01' W 122°51'0 0.0
2017-Nov-14 18:30N 46°01' W 122°51'0 0.0
2017-Nov-14 18:00N 46°01' W 122°51'0 0.0
2017-Nov-14 17:31N 46°01' W 122°51'0 0.0
2017-Nov-14 17:01N 46°01' W 122°51'0 0.0
2017-Nov-14 16:30N 46°01' W 122°51'0 0.0
2017-Nov-14 16:00N 46°01' W 122°51'0 0.0
2017-Nov-14 15:30N 46°01' W 122°51'0 0.0
2017-Nov-14 15:00N 46°01' W 122°51'0 0.0
2017-Nov-14 14:30N 46°01' W 122°51'0 0.0
2017-Nov-14 13:38N 46°01' W 122°51'0 0.0
2017-Nov-14 13:29N 46°01' W 122°51'0 0.0
2017-Nov-14 13:00N 46°01' W 122°51'0 0.0
2017-Nov-14 12:30N 46°01' W 122°51'0 0.0
2017-Nov-14 12:00N 46°01' W 122°51'0 0.0
2017-Nov-14 11:29N 46°01' W 122°51'0 0.0
2017-Nov-14 11:00N 46°01' W 122°51'0 0.0
2017-Nov-14 10:24N 46°01' W 122°51'0 0.0
2017-Nov-14 10:00N 46°01' W 122°51'0 0.0
2017-Nov-14 09:31N 46°01' W 122°51'0 0.0
2017-Nov-14 08:22N 46°01' W 122°51'0 0.0
2017-Nov-14 08:00N 46°01' W 122°51'0 0.0
2017-Nov-14 07:28N 46°01' W 122°51'0 0.0
2017-Nov-14 07:01N 46°01' W 122°51'0 0.0
2017-Nov-14 06:30N 46°01' W 122°51'0 0.0
2017-Nov-14 06:00N 46°01' W 122°51'0 0.0
2017-Nov-14 05:27N 46°01' W 122°51'0 0.0
2017-Nov-14 05:01N 46°01' W 122°51'0 0.0
2017-Nov-14 04:31N 46°01' W 122°51'0 0.0
2017-Nov-14 03:49N 46°01' W 122°51'0 0.0
2017-Nov-14 03:21N 46°01' W 122°51'0 0.0
2017-Nov-14 03:00N 46°01' W 122°51'0 0.0
2017-Nov-14 02:30N 46°01' W 122°51'0 0.0
2017-Nov-14 02:00N 46°01' W 122°51'0 0.0
2017-Nov-14 01:30N 46°01' W 122°51'0 0.0
2017-Nov-14 00:59N 46°01' W 122°51'0 0.0
2017-Nov-14 00:30N 46°01' W 122°51'0 0.0
2017-Nov-14 00:00N 46°01' W 122°51'0 0.0
2017-Nov-13 23:30N 46°01' W 122°51'918.9
2017-Nov-13 23:01N 46°08' W 122°60'510.7
2017-Nov-13 22:30N 46°10' W 123°06'0 0.1
2017-Nov-13 22:00N 46°10' W 123°06'32 1.6
2017-Nov-13 02:00N 45°42' W 122°46'4 7.2
2017-Nov-13 01:29N 45°39' W 122°45'1122.9
2017-Nov-13 01:00N 45°50' W 122°47'1120.1
2017-Nov-13 00:27N 46°01' W 122°51'0 0.0
2017-Nov-13 00:00N 46°01' W 122°51'0 0.0
2017-Nov-12 22:48N 46°01' W 122°51'0 0.0
2017-Nov-12 22:24N 46°01' W 122°51'0 0.0
2017-Nov-12 21:51N 46°01' W 122°51'0 0.0
2017-Nov-12 21:27N 46°01' W 122°51'0 0.0
2017-Nov-12 20:54N 46°01' W 122°51'0 0.0
2017-Nov-12 19:27N 46°01' W 122°51'0 0.0
2017-Nov-12 19:00N 46°01' W 122°51'0 0.0
2017-Nov-12 18:21N 46°01' W 122°51'0 0.0
2017-Nov-12 17:51N 46°01' W 122°51'0 0.0
2017-Nov-12 17:30N 46°01' W 122°51'0 0.0
2017-Nov-12 16:57N 46°01' W 122°51'0 0.0
2017-Nov-12 16:30N 46°01' W 122°51'0 0.0
2017-Nov-12 16:00N 46°01' W 122°51'0 0.0
2017-Nov-12 14:42N 46°01' W 122°51'0 0.0
2017-Nov-12 14:30N 46°01' W 122°51'0 0.2
2017-Nov-12 13:33N 46°01' W 122°51'0 0.6
2017-Nov-12 13:15N 46°01' W 122°51'0 0.0
2017-Nov-12 12:57N 46°01' W 122°51'0 0.0
2017-Nov-12 12:27N 46°01' W 122°51'0 0.0
2017-Nov-12 11:54N 46°01' W 122°51'0 0.0
2017-Nov-12 11:15N 46°01' W 122°51'0 0.0
2017-Nov-12 10:24N 46°01' W 122°51'0 0.0
2017-Nov-12 10:00N 46°01' W 122°51'0 0.0
2017-Nov-12 09:27N 46°01' W 122°51'0 0.0
2017-Nov-12 08:54N 46°01' W 122°51'0 0.0
2017-Nov-12 07:18N 46°01' W 122°51'0 0.0
2017-Nov-12 07:00N 46°01' W 122°51'0 0.0
2017-Nov-12 06:27N 46°01' W 122°51'0 0.0
2017-Nov-12 05:39N 46°01' W 122°51'0 0.0
2017-Nov-12 05:18N 46°01' W 122°51'0 0.0
2017-Nov-12 05:00N 46°01' W 122°51'0 0.0
2017-Nov-12 04:30N 46°01' W 122°51'0 0.0
2017-Nov-12 03:12N 46°01' W 122°51'0 0.0
2017-Nov-12 02:57N 46°01' W 122°51'0 0.0
2017-Nov-12 02:18N 46°01' W 122°51'0 0.0
2017-Nov-12 01:57N 46°01' W 122°51'0 0.0
2017-Nov-12 01:30N 46°01' W 122°51'0 0.0
2017-Nov-12 01:00N 46°01' W 122°51'0 0.0
2017-Nov-12 00:24N 46°01' W 122°51'0 0.0
2017-Nov-12 00:00N 46°01' W 122°51'0 0.0
2017-Nov-11 23:30N 46°01' W 122°51'0 0.0
2017-Nov-11 22:54N 46°01' W 122°51'0 0.0
2017-Nov-11 21:33N 46°01' W 122°51'0 0.0
2017-Nov-11 21:30N 46°01' W 122°51'0 0.1
2017-Nov-11 21:00N 46°01' W 122°51'0 0.1
2017-Nov-11 20:30N 46°01' W 122°51'0 0.0
2017-Nov-11 19:57N 46°01' W 122°51'0 0.0
2017-Nov-11 19:06N 46°01' W 122°51'0 0.0
2017-Nov-11 18:57N 46°01' W 122°51'0 0.0
2017-Nov-11 18:30N 46°01' W 122°51'0 0.0
2017-Nov-11 17:54N 46°01' W 122°51'0 0.0
2017-Nov-11 17:21N 46°01' W 122°51'0 0.0
2017-Nov-11 16:57N 46°01' W 122°51'2 3.6
2017-Nov-11 16:30N 45°59' W 122°50'2 3.1
2017-Nov-11 15:59N 46°01' W 122°51'0 0.1
2017-Nov-11 15:26N 46°01' W 122°51'0 0.0
2017-Nov-11 14:46N 46°01' W 122°51'0 0.0
2017-Nov-11 14:20N 46°01' W 122°51'0 0.0
2017-Nov-11 13:31N 46°01' W 122°51'0 0.1
2017-Nov-11 13:26N 46°01' W 122°51'0 0.0
2017-Nov-11 12:44N 46°01' W 122°51'0 0.1
2017-Nov-11 12:31N 46°01' W 122°51'2 3.1
2017-Nov-11 11:58N 45°59' W 122°50'0 0.1
2017-Nov-11 11:30N 45°59' W 122°50'2 3.0
2017-Nov-11 10:56N 46°01' W 122°51'0 0.0
2017-Nov-11 10:29N 46°01' W 122°51'0 0.0
2017-Nov-11 09:56N 46°01' W 122°51'0 0.0
2017-Nov-11 09:23N 46°01' W 122°51'0 0.0
2017-Nov-11 07:20N 46°01' W 122°51'0 0.0
2017-Nov-11 06:59N 46°01' W 122°51'0 0.0
2017-Nov-11 06:26N 46°01' W 122°51'0 0.0
2017-Nov-11 05:56N 46°01' W 122°51'0 0.0
2017-Nov-11 05:29N 46°01' W 122°51'0 0.0
2017-Nov-11 04:59N 46°01' W 122°51'0 0.0
2017-Nov-11 04:26N 46°01' W 122°51'0 0.0
2017-Nov-11 03:35N 46°01' W 122°51'0 0.1
2017-Nov-11 03:23N 46°01' W 122°51'0 0.0
2017-Nov-11 02:59N 46°01' W 122°51'0 0.0
2017-Nov-11 02:14N 46°01' W 122°51'0 0.0
2017-Nov-11 01:59N 46°01' W 122°51'0 0.0
2017-Nov-11 01:26N 46°01' W 122°51'0 0.0
2017-Nov-11 00:59N 46°01' W 122°51'0 0.0
2017-Nov-11 00:29N 46°01' W 122°51'0 0.0
2017-Nov-10 23:59N 46°01' W 122°51'0 0.0
2017-Nov-10 22:32N 46°01' W 122°51'0 0.0
2017-Nov-10 22:11N 46°01' W 122°51'0 0.1
2017-Nov-10 21:56N 46°01' W 122°51'0 0.0
2017-Nov-10 21:29N 46°01' W 122°51'0 0.0
2017-Nov-10 20:59N 46°01' W 122°51'0 0.0
2017-Nov-10 20:29N 46°01' W 122°51'0 0.0
2017-Nov-10 19:59N 46°01' W 122°51'0 0.0
2017-Nov-10 19:20N 46°01' W 122°51'720.6
2017-Nov-10 19:00N 45°54' W 122°48'1325.4
2017-Nov-10 18:30N 45°41' W 122°46'1 1.3
2017-Nov-10 18:00N 45°42' W 122°46'4 7.2
2017-Nov-10 17:30N 45°39' W 122°45'1223.9
2017-Nov-10 17:00N 45°51' W 122°47'1012.2
2017-Nov-10 16:10N 46°01' W 122°51'0 0.0
2017-Nov-10 15:58N 46°01' W 122°51'0 0.0
2017-Nov-10 15:28N 46°01' W 122°51'0 0.0
2017-Nov-10 14:58N 46°01' W 122°51'0 0.0
2017-Nov-10 14:05N 46°01' W 122°51'0 0.1
2017-Nov-10 13:55N 46°01' W 122°51'0 0.0
2017-Nov-10 13:07N 46°01' W 122°51'0 0.0
2017-Nov-10 12:58N 46°01' W 122°51'0 0.0
2017-Nov-10 12:16N 46°01' W 122°51'0 0.2
2017-Nov-10 11:58N 46°01' W 122°51'0 0.1
2017-Nov-10 11:28N 46°01' W 122°51'0 0.0
2017-Nov-10 10:22N 46°01' W 122°51'0 0.0
2017-Nov-10 09:34N 46°01' W 122°51'0 0.1
2017-Nov-10 09:28N 46°01' W 122°51'0 0.0
2017-Nov-10 08:58N 46°01' W 122°51'0 0.0
2017-Nov-10 07:16N 46°01' W 122°51'0 0.2
2017-Nov-10 06:58N 46°01' W 122°51'0 0.0
2017-Nov-10 06:28N 46°01' W 122°51'0 0.0
2017-Nov-10 05:58N 46°01' W 122°51'0 0.0
2017-Nov-10 05:22N 46°01' W 122°51'0 0.0
2017-Nov-10 04:28N 46°01' W 122°51'0 0.0
2017-Nov-10 02:55N 46°01' W 122°51'0 0.0
2017-Nov-10 02:10N 46°01' W 122°51'0 0.0
2017-Nov-10 01:40N 46°01' W 122°51'0 0.0
2017-Nov-10 01:13N 46°01' W 122°51'0 0.0
2017-Nov-10 00:55N 46°01' W 122°51'0 0.0
2017-Nov-10 00:28N 46°01' W 122°51'0 0.0
2017-Nov-09 23:58N 46°01' W 122°51'0 0.0
2017-Nov-09 23:07N 46°01' W 122°51'510.8
2017-Nov-09 22:42N 45°56' W 122°48'314.2
2017-Nov-09 22:27N 45°59' W 122°51'1125.5
2017-Nov-09 22:00N 45°48' W 122°47'816.0
2017-Nov-09 21:30N 45°40' W 122°46'0 0.4
2017-Nov-09 21:00N 45°40' W 122°46'2 3.6
2017-Nov-09 20:30N 45°42' W 122°46'1224.0
2017-Nov-09 20:00N 45°54' W 122°48'7 4.7
2017-Nov-09 18:30N 46°01' W 122°51'0 0.0
2017-Nov-09 17:57N 46°01' W 122°51'0 0.0
2017-Nov-09 17:27N 46°01' W 122°51'0 0.0
2017-Nov-09 16:51N 46°01' W 122°51'0 0.0
2017-Nov-09 16:27N 46°01' W 122°51'0 0.0
2017-Nov-09 15:50N 46°01' W 122°51'0 0.0
2017-Nov-09 15:06N 46°01' W 122°51'0 0.0
2017-Nov-09 14:54N 46°01' W 122°51'0 0.0
2017-Nov-09 14:29N 46°01' W 122°51'0 0.0
2017-Nov-09 13:44N 46°01' W 122°51'0 0.0
2017-Nov-09 13:29N 46°01' W 122°51'0 0.0
2017-Nov-09 12:59N 46°01' W 122°51'0 0.0
2017-Nov-09 12:21N 46°01' W 122°51'0 0.0
2017-Nov-09 11:18N 46°01' W 122°51'0 0.0
2017-Nov-09 10:29N 46°01' W 122°51'0 0.0
2017-Nov-09 09:54N 46°01' W 122°51'0 0.0
2017-Nov-09 09:29N 46°01' W 122°51'0 0.0
2017-Nov-09 08:54N 46°01' W 122°51'0 0.0
2017-Nov-09 07:06N 46°01' W 122°51'0 0.0
2017-Nov-09 06:57N 46°01' W 122°51'0 0.0
2017-Nov-09 06:21N 46°01' W 122°51'1 1.4
2017-Nov-09 05:57N 46°01' W 122°51'818.2
2017-Nov-09 05:30N 46°07' W 122°59'2 4.3
2017-Nov-09 05:01N 46°06' W 122°57'7 4.8
2017-Nov-09 03:36N 46°01' W 122°51'0 0.0
2017-Nov-09 03:24N 46°01' W 122°51'0 0.0
2017-Nov-09 03:00N 46°01' W 122°51'0 0.0
2017-Nov-09 02:30N 46°01' W 122°51'0 0.0
2017-Nov-09 01:59N 46°01' W 122°51'1021.3
2017-Nov-09 01:30N 45°51' W 122°47'1223.8
2017-Nov-09 01:00N 45°39' W 122°45'0 0.7
2017-Nov-09 00:25N 45°39' W 122°45'0 0.1
2017-Nov-09 00:00N 45°39' W 122°45'0 0.1
2017-Nov-08 23:31N 45°39' W 122°45'1121.8
2017-Nov-08 23:00N 45°49' W 122°48'1122.2
2017-Nov-08 22:30N 46°00' W 122°51'0 0.5
2017-Nov-08 21:58N 46°01' W 122°51'0 0.0
2017-Nov-08 21:28N 46°01' W 122°51'0 0.0
2017-Nov-08 20:49N 46°01' W 122°51'0 0.0
2017-Nov-08 20:21N 46°01' W 122°51'0 0.0
2017-Nov-08 19:54N 46°01' W 122°51'0 0.0
2017-Nov-08 19:24N 46°01' W 122°51'0 0.0
2017-Nov-08 18:57N 46°01' W 122°51'0 0.0
2017-Nov-08 18:30N 46°01' W 122°51'0 0.0
2017-Nov-08 18:00N 46°01' W 122°51'0 0.0
2017-Nov-08 17:21N 46°01' W 122°51'0 0.0
2017-Nov-08 16:57N 46°01' W 122°51'0 0.0
2017-Nov-08 16:24N 46°01' W 122°51'0 0.0
2017-Nov-08 15:48N 46°01' W 122°51'0 0.0
2017-Nov-08 15:27N 46°01' W 122°51'0 0.0
2017-Nov-08 14:57N 46°01' W 122°51'0 0.0
2017-Nov-08 13:51N 46°01' W 122°51'0 0.0
2017-Nov-08 13:09N 46°01' W 122°51'0 0.0
2017-Nov-08 13:00N 46°01' W 122°51'0 0.0
2017-Nov-08 12:24N 46°01' W 122°51'0 0.0
2017-Nov-08 11:57N 46°01' W 122°51'0 0.0
2017-Nov-08 10:36N 46°01' W 122°51'0 0.0
2017-Nov-08 09:51N 46°01' W 122°51'0 0.0
2017-Nov-08 09:30N 46°01' W 122°51'0 0.0
2017-Nov-08 08:42N 46°01' W 122°51'0 0.0
2017-Nov-08 08:24N 46°01' W 122°51'0 0.0
2017-Nov-08 06:57N 46°01' W 122°51'0 0.0
2017-Nov-08 06:30N 46°01' W 122°51'0 0.0
2017-Nov-08 05:21N 46°01' W 122°51'0 0.0
2017-Nov-08 03:57N 46°01' W 122°51'0 0.0
2017-Nov-08 03:12N 46°01' W 122°51'0 0.0
2017-Nov-08 03:00N 46°01' W 122°51'  
Track history (hours):
 
Tides and Currents Weather Stations Pressure Air Temp Water Temp Dewpoint Dewpoint Depression Visibility Wind Speed Wind Dir Waves Ship Positions

Relief

Owner: VIRGINIA PILOT BOAT CORPORATION, VIRGINIA BEACH, VA. More information available from US FCC via Universal Licensing System and Coast Guard Vessel Documentation Center.

Last reported at 2017-Nov-18 02:36 UTC. Time now 2017-Nov-18 03:06 UTC.
Position N 46°01' W 122°51'.

Length 13 m; draft 1 m.

Type: Pilot. MMSI: 367086140.

Date/timePositionNaut miles runAvg speedWind from/ knotsBaromVisibWave heightAir tempDewpointWater temp
2017-Nov-18 02:36N 46°01' W 122°51'0 0.1
2017-Nov-18 02:30N 46°01' W 122°51'0 0.0
2017-Nov-18 01:48N 46°01' W 122°51'0 0.0
2017-Nov-17 23:51N 46°01' W 122°51'0 0.0
2017-Nov-17 23:21N 46°01' W 122°51'0 0.0
2017-Nov-17 22:06N 46°01' W 122°51'0 0.0
2017-Nov-17 21:57N 46°01' W 122°51'0 0.0
2017-Nov-17 21:27N 46°01' W 122°51'0 0.0
2017-Nov-17 21:00N 46°01' W 122°51'0 0.0
2017-Nov-17 20:27N 46°01' W 122°51'0 0.1
2017-Nov-17 19:45N 46°01' W 122°51'0 0.1
2017-Nov-17 19:27N 46°01' W 122°51'0 0.0
2017-Nov-17 18:45N 46°01' W 122°51'0 0.0
2017-Nov-17 18:23N 46°01' W 122°51'2 4.4
2017-Nov-17 18:00N 45°59' W 122°50'2 3.3
2017-Nov-17 17:29N 46°01' W 122°51'0 0.0
2017-Nov-17 16:56N 46°01' W 122°51'0 0.0
2017-Nov-17 16:11N 46°01' W 122°51'0 0.1
2017-Nov-17 15:53N 46°01' W 122°51'0 0.0
2017-Nov-17 15:29N 46°01' W 122°51'0 0.0
2017-Nov-17 14:44N 46°01' W 122°51'0 0.0
2017-Nov-17 14:08N 46°01' W 122°51'0 0.0
2017-Nov-17 13:56N 46°01' W 122°51'0 0.0
2017-Nov-17 12:53N 46°01' W 122°51'0 0.0
2017-Nov-17 12:26N 46°01' W 122°51'0 0.0
2017-Nov-17 11:56N 46°01' W 122°51'0 0.0
2017-Nov-17 10:11N 46°01' W 122°51'0 0.0
2017-Nov-17 09:56N 46°01' W 122°51'1 2.7
2017-Nov-17 09:30N 45°59' W 122°51'1725.7
2017-Nov-17 08:52N 45°43' W 122°46'3 7.9
2017-Nov-17 08:30N 45°40' W 122°46'2 3.8
2017-Nov-17 07:59N 45°39' W 122°45'920.0
2017-Nov-17 07:31N 45°48' W 122°47'1325.8
2017-Nov-17 07:00N 46°01' W 122°51'0 0.1
2017-Nov-17 06:30N 46°01' W 122°51'0 0.0
2017-Nov-17 05:57N 46°01' W 122°51'0 0.0
2017-Nov-17 05:30N 46°01' W 122°51'0 0.0
2017-Nov-17 04:54N 46°01' W 122°51'0 0.0
2017-Nov-17 04:06N 46°01' W 122°51'0 0.0
2017-Nov-17 03:06N 46°01' W 122°51'0 0.0
2017-Nov-17 02:48N 46°01' W 122°51'0 0.0
2017-Nov-17 02:30N 46°01' W 122°51'0 0.0
2017-Nov-17 02:00N 46°01' W 122°51'0 0.0
2017-Nov-17 01:30N 46°01' W 122°51'0 0.0
2017-Nov-17 00:51N 46°01' W 122°51'0 0.0
2017-Nov-17 00:26N 46°01' W 122°51'0 0.0
2017-Nov-16 23:45N 46°01' W 122°51'0 0.0
2017-Nov-16 23:27N 46°01' W 122°51'0 0.0
2017-Nov-16 22:27N 46°01' W 122°51'0 0.0
2017-Nov-16 21:42N 46°01' W 122°51'0 0.0
2017-Nov-16 21:27N 46°01' W 122°51'0 0.0
2017-Nov-16 20:59N 46°01' W 122°51'0 0.0
2017-Nov-16 20:20N 46°01' W 122°51'0 0.0
2017-Nov-16 19:50N 46°01' W 122°51'0 0.0
2017-Nov-16 18:48N 46°01' W 122°51'0 0.0
2017-Nov-16 18:30N 46°01' W 122°51'0 0.0
2017-Nov-16 17:57N 46°01' W 122°51'0 0.0
2017-Nov-16 17:27N 46°01' W 122°51'0 0.0
2017-Nov-16 16:57N 46°01' W 122°51'0 0.0
2017-Nov-16 16:15N 46°01' W 122°51'0 0.0
2017-Nov-16 15:51N 46°01' W 122°51'0 0.0
2017-Nov-16 15:30N 46°01' W 122°51'0 0.0
2017-Nov-16 14:57N 46°01' W 122°51'0 0.0
2017-Nov-16 14:27N 46°01' W 122°51'0 0.0
2017-Nov-16 14:00N 46°01' W 122°51'0 0.0
2017-Nov-16 13:21N 46°01' W 122°51'0 0.0
2017-Nov-16 12:45N 46°01' W 122°51'0 0.0
2017-Nov-16 12:21N 46°01' W 122°51'0 0.0
2017-Nov-16 11:59N 46°01' W 122°51'0 0.0
2017-Nov-16 10:50N 46°01' W 122°51'0 0.0
2017-Nov-16 10:11N 46°01' W 122°51'0 0.0
2017-Nov-16 09:54N 46°01' W 122°51'0 0.0
2017-Nov-16 08:48N 46°01' W 122°51'0 0.0
2017-Nov-16 07:42N 46°01' W 122°51'0 0.0
2017-Nov-16 07:03N 46°01' W 122°51'0 0.1
2017-Nov-16 07:00N 46°01' W 122°51'0 0.0
2017-Nov-16 06:30N 46°01' W 122°51'0 0.0
2017-Nov-16 06:00N 46°01' W 122°51'0 0.0
2017-Nov-16 05:24N 46°01' W 122°51'0 0.0
2017-Nov-16 04:57N 46°01' W 122°51'0 0.0
2017-Nov-16 04:30N 46°01' W 122°51'0 0.0
2017-Nov-16 02:51N 46°01' W 122°51'0 0.0
2017-Nov-16 02:30N 46°01' W 122°51'0 0.0
2017-Nov-16 01:57N 46°01' W 122°51'0 0.0
2017-Nov-16 01:30N 46°01' W 122°51'0 0.0
2017-Nov-16 01:00N 46°01' W 122°51'0 0.0
2017-Nov-16 00:24N 46°01' W 122°51'0 0.0
2017-Nov-15 23:57N 46°01' W 122°51'0 0.0
2017-Nov-15 23:27N 46°01' W 122°51'0 0.0
2017-Nov-15 22:27N 46°01' W 122°51'0 0.0
2017-Nov-15 21:58N 46°01' W 122°51'0 0.0
2017-Nov-15 21:27N 46°01' W 122°51'0 0.0
2017-Nov-15 21:00N 46°01' W 122°51'0 0.1
2017-Nov-15 20:30N 46°01' W 122°51'0 0.1
2017-Nov-15 20:00N 46°01' W 122°51'0 0.0
2017-Nov-15 19:20N 46°01' W 122°51'0 0.0
2017-Nov-15 18:53N 46°01' W 122°51'0 0.0
2017-Nov-15 18:30N 46°01' W 122°51'0 0.0
2017-Nov-15 18:00N 46°01' W 122°51'0 0.1
2017-Nov-15 17:30N 46°01' W 122°51'918.7
2017-Nov-15 17:00N 46°08' W 122°60'815.2
2017-Nov-15 16:31N 46°11' W 123°09'1121.6
2017-Nov-15 16:00N 46°05' W 122°56'0 0.0
2017-Nov-15 15:31N 46°05' W 122°56'0 0.1
2017-Nov-15 14:02N 46°05' W 122°56'0 0.3
2017-Nov-15 14:00N 46°05' W 122°56'917.4
2017-Nov-15 13:30N 46°10' W 123°06'714.5
2017-Nov-15 13:00N 46°06' W 122°58'714.6
2017-Nov-15 12:30N 46°01' W 122°51'0 0.0
2017-Nov-15 12:00N 46°01' W 122°51'0 0.0
2017-Nov-15 11:30N 46°01' W 122°51'0 0.0
2017-Nov-15 11:00N 46°01' W 122°51'0 0.0
2017-Nov-15 10:21N 46°01' W 122°51'0 0.0
2017-Nov-15 10:00N 46°01' W 122°51'0 0.0
2017-Nov-15 09:30N 46°01' W 122°51'0 0.0
2017-Nov-15 09:00N 46°01' W 122°51'0 0.0
2017-Nov-15 08:30N 46°01' W 122°51'0 0.0
2017-Nov-15 07:58N 46°01' W 122°51'0 0.0
2017-Nov-15 07:24N 46°01' W 122°51'0 0.0
2017-Nov-15 06:53N 46°01' W 122°51'0 0.0
2017-Nov-15 06:30N 46°01' W 122°51'0 0.0
2017-Nov-15 06:00N 46°01' W 122°51'0 0.0
2017-Nov-15 05:30N 46°01' W 122°51'0 0.0
2017-Nov-15 05:01N 46°01' W 122°51'2 3.4
2017-Nov-15 04:31N 45°59' W 122°50'0 0.0
2017-Nov-15 04:01N 45°59' W 122°50'2 3.4
2017-Nov-15 03:30N 46°01' W 122°51'0 0.0
2017-Nov-15 03:00N 46°01' W 122°51'0 0.0
2017-Nov-15 02:16N 46°01' W 122°51'0 0.0
2017-Nov-15 02:00N 46°01' W 122°51'0 0.0
2017-Nov-15 01:30N 46°01' W 122°51'0 0.0
2017-Nov-15 01:00N 46°01' W 122°51'0 0.0
2017-Nov-15 00:30N 46°01' W 122°51'0 0.0
2017-Nov-15 00:00N 46°01' W 122°51'0 0.0
2017-Nov-14 23:30N 46°01' W 122°51'0 0.0
2017-Nov-14 23:00N 46°01' W 122°51'0 0.0
2017-Nov-14 22:28N 46°01' W 122°51'0 0.0
2017-Nov-14 22:00N 46°01' W 122°51'0 0.0
2017-Nov-14 21:30N 46°01' W 122°51'0 0.0
2017-Nov-14 21:00N 46°01' W 122°51'0 0.0
2017-Nov-14 20:30N 46°01' W 122°51'0 0.0
2017-Nov-14 20:00N 46°01' W 122°51'0 0.0
2017-Nov-14 19:29N 46°01' W 122°51'0 0.0
2017-Nov-14 18:59N 46°01' W 122°51'0 0.0
2017-Nov-14 18:30N 46°01' W 122°51'0 0.0
2017-Nov-14 18:00N 46°01' W 122°51'0 0.0
2017-Nov-14 17:31N 46°01' W 122°51'0 0.0
2017-Nov-14 17:01N 46°01' W 122°51'0 0.0
2017-Nov-14 16:30N 46°01' W 122°51'0 0.0
2017-Nov-14 16:00N 46°01' W 122°51'0 0.0
2017-Nov-14 15:30N 46°01' W 122°51'0 0.0
2017-Nov-14 15:00N 46°01' W 122°51'0 0.0
2017-Nov-14 14:30N 46°01' W 122°51'0 0.0
2017-Nov-14 13:38N 46°01' W 122°51'0 0.0
2017-Nov-14 13:29N 46°01' W 122°51'0 0.0
2017-Nov-14 13:00N 46°01' W 122°51'0 0.0
2017-Nov-14 12:30N 46°01' W 122°51'0 0.0
2017-Nov-14 12:00N 46°01' W 122°51'0 0.0
2017-Nov-14 11:29N 46°01' W 122°51'0 0.0
2017-Nov-14 11:00N 46°01' W 122°51'0 0.0
2017-Nov-14 10:24N 46°01' W 122°51'0 0.0
2017-Nov-14 10:00N 46°01' W 122°51'0 0.0
2017-Nov-14 09:31N 46°01' W 122°51'0 0.0
2017-Nov-14 08:22N 46°01' W 122°51'0 0.0
2017-Nov-14 08:00N 46°01' W 122°51'0 0.0
2017-Nov-14 07:28N 46°01' W 122°51'0 0.0
2017-Nov-14 07:01N 46°01' W 122°51'0 0.0
2017-Nov-14 06:30N 46°01' W 122°51'0 0.0
2017-Nov-14 06:00N 46°01' W 122°51'0 0.0
2017-Nov-14 05:27N 46°01' W 122°51'0 0.0
2017-Nov-14 05:01N 46°01' W 122°51'0 0.0
2017-Nov-14 04:31N 46°01' W 122°51'0 0.0
2017-Nov-14 03:49N 46°01' W 122°51'0 0.0
2017-Nov-14 03:21N 46°01' W 122°51'0 0.0
2017-Nov-14 03:00N 46°01' W 122°51'0 0.0
2017-Nov-14 02:30N 46°01' W 122°51'0 0.0
2017-Nov-14 02:00N 46°01' W 122°51'0 0.0
2017-Nov-14 01:30N 46°01' W 122°51'0 0.0
2017-Nov-14 00:59N 46°01' W 122°51'0 0.0
2017-Nov-14 00:30N 46°01' W 122°51'0 0.0
2017-Nov-14 00:00N 46°01' W 122°51'0 0.0
2017-Nov-13 23:30N 46°01' W 122°51'918.9
2017-Nov-13 23:01N 46°08' W 122°60'510.7
2017-Nov-13 22:30N 46°10' W 123°06'0 0.1
2017-Nov-13 22:00N 46°10' W 123°06'32 1.6
2017-Nov-13 02:00N 45°42' W 122°46'4 7.2
2017-Nov-13 01:29N 45°39' W 122°45'1122.9
2017-Nov-13 01:00N 45°50' W 122°47'1120.1
2017-Nov-13 00:27N 46°01' W 122°51'0 0.0
2017-Nov-13 00:00N 46°01' W 122°51'0 0.0
2017-Nov-12 22:48N 46°01' W 122°51'0 0.0
2017-Nov-12 22:24N 46°01' W 122°51'0 0.0
2017-Nov-12 21:51N 46°01' W 122°51'0 0.0
2017-Nov-12 21:27N 46°01' W 122°51'0 0.0
2017-Nov-12 20:54N 46°01' W 122°51'0 0.0
2017-Nov-12 19:27N 46°01' W 122°51'0 0.0
2017-Nov-12 19:00N 46°01' W 122°51'0 0.0
2017-Nov-12 18:21N 46°01' W 122°51'0 0.0
2017-Nov-12 17:51N 46°01' W 122°51'0 0.0
2017-Nov-12 17:30N 46°01' W 122°51'0 0.0
2017-Nov-12 16:57N 46°01' W 122°51'0 0.0
2017-Nov-12 16:30N 46°01' W 122°51'0 0.0
2017-Nov-12 16:00N 46°01' W 122°51'0 0.0
2017-Nov-12 14:42N 46°01' W 122°51'0 0.0
2017-Nov-12 14:30N 46°01' W 122°51'0 0.2
2017-Nov-12 13:33N 46°01' W 122°51'0 0.6
2017-Nov-12 13:15N 46°01' W 122°51'0 0.0
2017-Nov-12 12:57N 46°01' W 122°51'0 0.0
2017-Nov-12 12:27N 46°01' W 122°51'0 0.0
2017-Nov-12 11:54N 46°01' W 122°51'0 0.0
2017-Nov-12 11:15N 46°01' W 122°51'0 0.0
2017-Nov-12 10:24N 46°01' W 122°51'0 0.0
2017-Nov-12 10:00N 46°01' W 122°51'0 0.0
2017-Nov-12 09:27N 46°01' W 122°51'0 0.0
2017-Nov-12 08:54N 46°01' W 122°51'0 0.0
2017-Nov-12 07:18N 46°01' W 122°51'0 0.0
2017-Nov-12 07:00N 46°01' W 122°51'0 0.0
2017-Nov-12 06:27N 46°01' W 122°51'0 0.0
2017-Nov-12 05:39N 46°01' W 122°51'0 0.0
2017-Nov-12 05:18N 46°01' W 122°51'0 0.0
2017-Nov-12 05:00N 46°01' W 122°51'0 0.0
2017-Nov-12 04:30N 46°01' W 122°51'0 0.0
2017-Nov-12 03:12N 46°01' W 122°51'0 0.0
2017-Nov-12 02:57N 46°01' W 122°51'0 0.0
2017-Nov-12 02:18N 46°01' W 122°51'0 0.0
2017-Nov-12 01:57N 46°01' W 122°51'0 0.0
2017-Nov-12 01:30N 46°01' W 122°51'0 0.0
2017-Nov-12 01:00N 46°01' W 122°51'0 0.0
2017-Nov-12 00:24N 46°01' W 122°51'0 0.0
2017-Nov-12 00:00N 46°01' W 122°51'0 0.0
2017-Nov-11 23:30N 46°01' W 122°51'0 0.0
2017-Nov-11 22:54N 46°01' W 122°51'0 0.0
2017-Nov-11 21:33N 46°01' W 122°51'0 0.0
2017-Nov-11 21:30N 46°01' W 122°51'0 0.1
2017-Nov-11 21:00N 46°01' W 122°51'0 0.1
2017-Nov-11 20:30N 46°01' W 122°51'0 0.0
2017-Nov-11 19:57N 46°01' W 122°51'0 0.0
2017-Nov-11 19:06N 46°01' W 122°51'0 0.0
2017-Nov-11 18:57N 46°01' W 122°51'0 0.0
2017-Nov-11 18:30N 46°01' W 122°51'0 0.0
2017-Nov-11 17:54N 46°01' W 122°51'0 0.0
2017-Nov-11 17:21N 46°01' W 122°51'0 0.0
2017-Nov-11 16:57N 46°01' W 122°51'2 3.6
2017-Nov-11 16:30N 45°59' W 122°50'2 3.1
2017-Nov-11 15:59N 46°01' W 122°51'0 0.1
2017-Nov-11 15:26N 46°01' W 122°51'0 0.0
2017-Nov-11 14:46N 46°01' W 122°51'0 0.0
2017-Nov-11 14:20N 46°01' W 122°51'0 0.0
2017-Nov-11 13:31N 46°01' W 122°51'0 0.1
2017-Nov-11 13:26N 46°01' W 122°51'0 0.0
2017-Nov-11 12:44N 46°01' W 122°51'0 0.1
2017-Nov-11 12:31N 46°01' W 122°51'2 3.1
2017-Nov-11 11:58N 45°59' W 122°50'0 0.1
2017-Nov-11 11:30N 45°59' W 122°50'2 3.0
2017-Nov-11 10:56N 46°01' W 122°51'0 0.0
2017-Nov-11 10:29N 46°01' W 122°51'0 0.0
2017-Nov-11 09:56N 46°01' W 122°51'0 0.0
2017-Nov-11 09:23N 46°01' W 122°51'0 0.0
2017-Nov-11 07:20N 46°01' W 122°51'0 0.0
2017-Nov-11 06:59N 46°01' W 122°51'0 0.0
2017-Nov-11 06:26N 46°01' W 122°51'0 0.0
2017-Nov-11 05:56N 46°01' W 122°51'0 0.0
2017-Nov-11 05:29N 46°01' W 122°51'0 0.0
2017-Nov-11 04:59N 46°01' W 122°51'0 0.0
2017-Nov-11 04:26N 46°01' W 122°51'0 0.0
2017-Nov-11 03:35N 46°01' W 122°51'0 0.1
2017-Nov-11 03:23N 46°01' W 122°51'0 0.0
2017-Nov-11 02:59N 46°01' W 122°51'0 0.0
2017-Nov-11 02:14N 46°01' W 122°51'0 0.0
2017-Nov-11 01:59N 46°01' W 122°51'0 0.0
2017-Nov-11 01:26N 46°01' W 122°51'0 0.0
2017-Nov-11 00:59N 46°01' W 122°51'0 0.0
2017-Nov-11 00:29N 46°01' W 122°51'0 0.0
2017-Nov-10 23:59N 46°01' W 122°51'0 0.0
2017-Nov-10 22:32N 46°01' W 122°51'0 0.0
2017-Nov-10 22:11N 46°01' W 122°51'0 0.1
2017-Nov-10 21:56N 46°01' W 122°51'0 0.0
2017-Nov-10 21:29N 46°01' W 122°51'0 0.0
2017-Nov-10 20:59N 46°01' W 122°51'0 0.0
2017-Nov-10 20:29N 46°01' W 122°51'0 0.0
2017-Nov-10 19:59N 46°01' W 122°51'0 0.0
2017-Nov-10 19:20N 46°01' W 122°51'720.6
2017-Nov-10 19:00N 45°54' W 122°48'1325.4
2017-Nov-10 18:30N 45°41' W 122°46'1 1.3
2017-Nov-10 18:00N 45°42' W 122°46'4 7.2
2017-Nov-10 17:30N 45°39' W 122°45'1223.9
2017-Nov-10 17:00N 45°51' W 122°47'1012.2
2017-Nov-10 16:10N 46°01' W 122°51'0 0.0
2017-Nov-10 15:58N 46°01' W 122°51'0 0.0
2017-Nov-10 15:28N 46°01' W 122°51'0 0.0
2017-Nov-10 14:58N 46°01' W 122°51'0 0.0
2017-Nov-10 14:05N 46°01' W 122°51'0 0.1
2017-Nov-10 13:55N 46°01' W 122°51'0 0.0
2017-Nov-10 13:07N 46°01' W 122°51'0 0.0
2017-Nov-10 12:58N 46°01' W 122°51'0 0.0
2017-Nov-10 12:16N 46°01' W 122°51'0 0.2
2017-Nov-10 11:58N 46°01' W 122°51'0 0.1
2017-Nov-10 11:28N 46°01' W 122°51'0 0.0
2017-Nov-10 10:22N 46°01' W 122°51'0 0.0
2017-Nov-10 09:34N 46°01' W 122°51'0 0.1
2017-Nov-10 09:28N 46°01' W 122°51'0 0.0
2017-Nov-10 08:58N 46°01' W 122°51'0 0.0
2017-Nov-10 07:16N 46°01' W 122°51'0 0.2
2017-Nov-10 06:58N 46°01' W 122°51'0 0.0
2017-Nov-10 06:28N 46°01' W 122°51'0 0.0
2017-Nov-10 05:58N 46°01' W 122°51'0 0.0
2017-Nov-10 05:22N 46°01' W 122°51'0 0.0
2017-Nov-10 04:28N 46°01' W 122°51'0 0.0
2017-Nov-10 02:55N 46°01' W 122°51'0 0.0
2017-Nov-10 02:10N 46°01' W 122°51'0 0.0
2017-Nov-10 01:40N 46°01' W 122°51'0 0.0
2017-Nov-10 01:13N 46°01' W 122°51'0 0.0
2017-Nov-10 00:55N 46°01' W 122°51'0 0.0
2017-Nov-10 00:28N 46°01' W 122°51'0 0.0
2017-Nov-09 23:58N 46°01' W 122°51'0 0.0
2017-Nov-09 23:07N 46°01' W 122°51'510.8
2017-Nov-09 22:42N 45°56' W 122°48'314.2
2017-Nov-09 22:27N 45°59' W 122°51'1125.5
2017-Nov-09 22:00N 45°48' W 122°47'816.0
2017-Nov-09 21:30N 45°40' W 122°46'0 0.4
2017-Nov-09 21:00N 45°40' W 122°46'2 3.6
2017-Nov-09 20:30N 45°42' W 122°46'1224.0
2017-Nov-09 20:00N 45°54' W 122°48'7 4.7
2017-Nov-09 18:30N 46°01' W 122°51'0 0.0
2017-Nov-09 17:57N 46°01' W 122°51'0 0.0
2017-Nov-09 17:27N 46°01' W 122°51'0 0.0
2017-Nov-09 16:51N 46°01' W 122°51'0 0.0
2017-Nov-09 16:27N 46°01' W 122°51'0 0.0
2017-Nov-09 15:50N 46°01' W 122°51'0 0.0
2017-Nov-09 15:06N 46°01' W 122°51'0 0.0
2017-Nov-09 14:54N 46°01' W 122°51'0 0.0
2017-Nov-09 14:29N 46°01' W 122°51'0 0.0
2017-Nov-09 13:44N 46°01' W 122°51'0 0.0
2017-Nov-09 13:29N 46°01' W 122°51'0 0.0
2017-Nov-09 12:59N 46°01' W 122°51'0 0.0
2017-Nov-09 12:21N 46°01' W 122°51'0 0.0
2017-Nov-09 11:18N 46°01' W 122°51'0 0.0
2017-Nov-09 10:29N 46°01' W 122°51'0 0.0
2017-Nov-09 09:54N 46°01' W 122°51'0 0.0
2017-Nov-09 09:29N 46°01' W 122°51'0 0.0
2017-Nov-09 08:54N 46°01' W 122°51'0 0.0
2017-Nov-09 07:06N 46°01' W 122°51'0 0.0
2017-Nov-09 06:57N 46°01' W 122°51'0 0.0
2017-Nov-09 06:21N 46°01' W 122°51'1 1.4
2017-Nov-09 05:57N 46°01' W 122°51'818.2
2017-Nov-09 05:30N 46°07' W 122°59'2 4.3
2017-Nov-09 05:01N 46°06' W 122°57'7 4.8
2017-Nov-09 03:36N 46°01' W 122°51'0 0.0
2017-Nov-09 03:24N 46°01' W 122°51'0 0.0
2017-Nov-09 03:00N 46°01' W 122°51'0 0.0
2017-Nov-09 02:30N 46°01' W 122°51'0 0.0
2017-Nov-09 01:59N 46°01' W 122°51'1021.3
2017-Nov-09 01:30N 45°51' W 122°47'1223.8
2017-Nov-09 01:00N 45°39' W 122°45'0 0.7
2017-Nov-09 00:25N 45°39' W 122°45'0 0.1
2017-Nov-09 00:00N 45°39' W 122°45'0 0.1
2017-Nov-08 23:31N 45°39' W 122°45'1121.8
2017-Nov-08 23:00N 45°49' W 122°48'1122.2
2017-Nov-08 22:30N 46°00' W 122°51'0 0.5
2017-Nov-08 21:58N 46°01' W 122°51'0 0.0
2017-Nov-08 21:28N 46°01' W 122°51'0 0.0
2017-Nov-08 20:49N 46°01' W 122°51'0 0.0
2017-Nov-08 20:21N 46°01' W 122°51'0 0.0
2017-Nov-08 19:54N 46°01' W 122°51'0 0.0
2017-Nov-08 19:24N 46°01' W 122°51'0 0.0
2017-Nov-08 18:57N 46°01' W 122°51'0 0.0
2017-Nov-08 18:30N 46°01' W 122°51'0 0.0
2017-Nov-08 18:00N 46°01' W 122°51'0 0.0
2017-Nov-08 17:21N 46°01' W 122°51'0 0.0
2017-Nov-08 16:57N 46°01' W 122°51'0 0.0
2017-Nov-08 16:24N 46°01' W 122°51'0 0.0
2017-Nov-08 15:48N 46°01' W 122°51'0 0.0
2017-Nov-08 15:27N 46°01' W 122°51'0 0.0
2017-Nov-08 14:57N 46°01' W 122°51'0 0.0
2017-Nov-08 13:51N 46°01' W 122°51'0 0.0
2017-Nov-08 13:09N 46°01' W 122°51'0 0.0
2017-Nov-08 13:00N 46°01' W 122°51'0 0.0
2017-Nov-08 12:24N 46°01' W 122°51'0 0.0
2017-Nov-08 11:57N 46°01' W 122°51'0 0.0
2017-Nov-08 10:36N 46°01' W 122°51'0 0.0
2017-Nov-08 09:51N 46°01' W 122°51'0 0.0
2017-Nov-08 09:30N 46°01' W 122°51'0 0.0
2017-Nov-08 08:42N 46°01' W 122°51'0 0.0
2017-Nov-08 08:24N 46°01' W 122°51'0 0.0
2017-Nov-08 06:57N 46°01' W 122°51'0 0.0
2017-Nov-08 06:30N 46°01' W 122°51'0 0.0
2017-Nov-08 05:21N 46°01' W 122°51'0 0.0
2017-Nov-08 03:57N 46°01' W 122°51'0 0.0
2017-Nov-08 03:12N 46°01' W 122°51'0 0.0
2017-Nov-08 03:00N 46°01' W 122°51'  

Dump ship's entire track history